Time;durP1;ratioP1;P1;durP2;ratioP2;P2;SDS_P1;SDS_P2;PMS_P1;PMS_P2;Temp;Humidity;BMP_temperature;BMP_pressure;BME280_temperature;BME280_humidity;BME280_pressure;Samples;Min_cycle;Max_cycle;Signal;HPM_P1;HPM_P2
2022/03/03 00:01:36;;;;;;;37.60;20.85;;;;;;;;;;5034709;28;19913;-62
2022/03/03 00:04:03;;;;;;;41.17;20.52;;;;;;;;;;5034310;28;20017;-62
2022/03/03 00:06:29;;;;;;;36.30;20.23;;;;;;;;;;5033975;28;20425;-62
2022/03/03 00:08:55;;;;;;;39.85;22.02;;;;;;;;;;5034409;28;20033;-62
2022/03/03 00:11:22;;;;;;;40.17;22.85;;;;;;;;;;5034062;28;20029;-61
2022/03/03 00:13:48;;;;;;;38.10;22.42;;;;;;;;;;5033705;28;20108;-61
2022/03/03 00:16:14;;;;;;;45.03;24.02;;;;;;;;;;5034427;28;20026;-61
2022/03/03 00:18:40;;;;;;;37.90;22.40;;;;;;;;;;5034396;28;20025;-61
2022/03/03 00:21:06;;;;;;;36.30;21.65;;;;;;;;;;5033713;28;20049;-60
2022/03/03 00:23:33;;;;;;;43.25;23.20;;;;;;;;;;5034212;28;20077;-61
2022/03/03 00:25:59;;;;;;;40.85;23.83;;;;;;;;;;5034296;28;20017;-61
2022/03/03 00:28:26;;;;;;;41.72;23.77;;;;;;;;;;5033774;28;20362;-61
2022/03/03 00:30:52;;;;;;;44.00;24.30;;;;;;;;;;5034175;28;20104;-59
2022/03/03 00:33:18;;;;;;;44.92;25.38;;;;;;;;;;5034402;28;20447;-60
2022/03/03 00:35:44;;;;;;;50.42;26.40;;;;;;;;;;5033546;28;20036;-60
2022/03/03 00:38:11;;;;;;;53.60;26.60;;;;;;;;;;5034007;28;20094;-59
2022/03/03 00:40:37;;;;;;;46.88;25.17;;;;;;;;;;5034001;28;20026;-61
2022/03/03 00:43:06;;;;;;;42.13;23.38;;;;;;;;;;5033458;28;20049;-59
2022/03/03 00:45:32;;;;;;;51.50;25.23;;;;;;;;;;5033986;28;20072;-60
2022/03/03 00:47:58;;;;;;;41.03;24.60;;;;;;;;;;5033542;28;20037;-60
2022/03/03 00:50:25;;;;;;;41.60;24.63;;;;;;;;;;5033767;28;20033;-61
2022/03/03 00:52:51;;;;;;;44.58;25.38;;;;;;;;;;5033936;28;20040;-58
2022/03/03 00:55:17;;;;;;;44.13;23.20;;;;;;;;;;5033452;28;20040;-60
2022/03/03 00:57:43;;;;;;;42.20;22.95;;;;;;;;;;5033890;28;20032;-62
2022/03/03 01:00:10;;;;;;;50.00;25.98;;;;;;;;;;5033734;28;20117;-60
2022/03/03 01:02:36;;;;;;;45.38;24.95;;;;;;;;;;5033427;28;20025;-60
2022/03/03 01:05:03;;;;;;;42.75;23.98;;;;;;;;;;5033445;28;20022;-61
2022/03/03 01:07:29;;;;;;;41.72;23.10;;;;;;;;;;5033907;28;20080;-61
2022/03/03 01:09:55;;;;;;;37.97;22.20;;;;;;;;;;5033297;28;20038;-61
2022/03/03 01:12:22;;;;;;;50.53;24.02;;;;;;;;;;5033389;28;20356;-61
2022/03/03 01:14:48;;;;;;;46.83;23.92;;;;;;;;;;5033577;28;20032;-61
2022/03/03 01:17:15;;;;;;;44.72;24.23;;;;;;;;;;5032958;28;20047;-60
2022/03/03 01:19:41;;;;;;;47.88;25.42;;;;;;;;;;5033547;28;20040;-61
2022/03/03 01:22:07;;;;;;;44.05;23.83;;;;;;;;;;5033443;28;20044;-61
2022/03/03 01:24:33;;;;;;;49.38;24.70;;;;;;;;;;5034971;28;20046;-61
2022/03/03 01:27:00;;;;;;;46.75;24.27;;;;;;;;;;5037840;28;20029;-61
2022/03/03 01:29:26;;;;;;;40.80;23.40;;;;;;;;;;5037482;28;20029;-60
2022/03/03 01:31:52;;;;;;;40.60;22.25;;;;;;;;;;5037232;28;20600;-61
2022/03/03 01:34:18;;;;;;;41.75;22.95;;;;;;;;;;5037138;28;20034;-61
2022/03/03 01:36:44;;;;;;;46.38;23.30;;;;;;;;;;5037108;28;20476;-65
2022/03/03 01:39:11;;;;;;;39.75;22.08;;;;;;;;;;5037333;28;20421;-61
2022/03/03 01:41:40;;;;;;;46.03;22.42;;;;;;;;;;5037745;28;20021;-60
2022/03/03 01:44:06;;;;;;;40.60;21.88;;;;;;;;;;5036617;28;20052;-61
2022/03/03 01:46:32;;;;;;;37.53;22.73;;;;;;;;;;5037042;28;20030;-60
2022/03/03 01:48:58;;;;;;;41.15;22.98;;;;;;;;;;5037124;28;20029;-61
2022/03/03 01:51:24;;;;;;;42.45;22.98;;;;;;;;;;5036713;28;20029;-60
2022/03/03 01:53:51;;;;;;;43.05;23.45;;;;;;;;;;5036853;28;20025;-60
2022/03/03 01:56:17;;;;;;;44.88;23.48;;;;;;;;;;5037564;28;20060;-60
2022/03/03 01:58:43;;;;;;;42.35;22.02;;;;;;;;;;5036636;28;20053;-61
2022/03/03 02:01:10;;;;;;;44.42;22.92;;;;;;;;;;5036974;28;20025;-62
2022/03/03 02:03:36;;;;;;;37.60;21.65;;;;;;;;;;5036906;28;20022;-58
2022/03/03 02:06:02;;;;;;;44.80;22.95;;;;;;;;;;5036218;28;20351;-59
2022/03/03 02:08:28;;;;;;;40.97;22.27;;;;;;;;;;5036414;28;20374;-60
2022/03/03 02:10:55;;;;;;;44.42;22.75;;;;;;;;;;5036509;28;20022;-59
2022/03/03 02:13:21;;;;;;;45.60;22.80;;;;;;;;;;5036406;28;20029;-60
2022/03/03 02:15:48;;;;;;;41.35;22.30;;;;;;;;;;5036601;28;20017;-58
2022/03/03 02:18:14;;;;;;;38.55;21.83;;;;;;;;;;5036497;28;20025;-60
2022/03/03 02:20:40;;;;;;;39.95;21.23;;;;;;;;;;5035926;28;20032;-59
2022/03/03 02:23:06;;;;;;;38.58;21.02;;;;;;;;;;5035061;28;20022;-60
2022/03/03 02:25:33;;;;;;;37.03;20.45;;;;;;;;;;5037051;28;20075;-59
2022/03/03 02:27:59;;;;;;;43.38;20.35;;;;;;;;;;5036123;28;20021;-57
2022/03/03 02:30:26;;;;;;;42.67;21.50;;;;;;;;;;5036254;28;20029;-59
2022/03/03 02:32:52;;;;;;;41.95;22.33;;;;;;;;;;5035761;28;20112;-58
2022/03/03 02:35:19;;;;;;;37.22;20.98;;;;;;;;;;5036195;28;20029;-60
2022/03/03 02:37:46;;;;;;;41.88;22.25;;;;;;;;;;5035955;28;20108;-60
2022/03/03 02:40:13;;;;;;;40.55;23.05;;;;;;;;;;5036274;28;20030;-60
2022/03/03 02:42:39;;;;;;;43.03;22.17;;;;;;;;;;5036097;28;20022;-59
2022/03/03 02:45:06;;;;;;;42.10;22.48;;;;;;;;;;5036018;28;20474;-60
2022/03/03 02:47:32;;;;;;;47.70;22.77;;;;;;;;;;5035330;28;20083;-60
2022/03/03 02:49:58;;;;;;;37.45;21.90;;;;;;;;;;5035789;28;20026;-60
2022/03/03 02:52:24;;;;;;;40.42;22.17;;;;;;;;;;5035684;28;20147;-60
2022/03/03 02:54:51;;;;;;;38.95;21.75;;;;;;;;;;5035538;28;20382;-60
2022/03/03 03:00:03;;;;;;;39.20;21.48;;;;;;;;;;5035651;28;20087;-60
2022/03/03 03:02:29;;;;;;;45.45;22.80;;;;;;;;;;5034792;28;20017;-60
2022/03/03 03:04:55;;;;;;;44.58;22.48;;;;;;;;;;5035674;28;20022;-60
2022/03/03 03:07:22;;;;;;;38.60;20.88;;;;;;;;;;5034099;28;20089;-61
2022/03/03 03:09:48;;;;;;;41.17;21.23;;;;;;;;;;5035332;28;20061;-61
2022/03/03 03:12:14;;;;;;;38.00;20.15;;;;;;;;;;5035612;28;20052;-60
2022/03/03 03:14:40;;;;;;;43.25;21.13;;;;;;;;;;5035487;28;20026;-59
2022/03/03 03:17:06;;;;;;;39.90;21.13;;;;;;;;;;5035142;28;20026;-60
2022/03/03 03:19:32;;;;;;;38.40;19.70;;;;;;;;;;5035424;28;20021;-59
2022/03/03 03:21:59;;;;;;;38.08;20.10;;;;;;;;;;5035306;28;20029;-60
2022/03/03 03:24:26;;;;;;;37.15;19.95;;;;;;;;;;5035301;28;20183;-60
2022/03/03 03:26:52;;;;;;;42.67;20.70;;;;;;;;;;5034977;28;20025;-60
2022/03/03 03:29:18;;;;;;;41.28;20.85;;;;;;;;;;5034847;28;20030;-60
2022/03/03 03:31:44;;;;;;;37.83;21.23;;;;;;;;;;5034961;28;20047;-59
2022/03/03 03:34:10;;;;;;;37.70;19.27;;;;;;;;;;5034925;28;20053;-61
2022/03/03 03:36:36;;;;;;;42.40;21.50;;;;;;;;;;5034892;28;20122;-60
2022/03/03 03:39:03;;;;;;;37.92;20.50;;;;;;;;;;5034779;28;20516;-60
2022/03/03 03:41:30;;;;;;;42.70;21.70;;;;;;;;;;5035075;28;20022;-60
2022/03/03 03:43:56;;;;;;;39.75;20.33;;;;;;;;;;5034324;28;20025;-58
2022/03/03 03:46:22;;;;;;;36.78;19.85;;;;;;;;;;5034219;28;20367;-59
2022/03/03 03:48:48;;;;;;;41.67;20.95;;;;;;;;;;5034412;28;20478;-60
2022/03/03 03:51:15;;;;;;;34.63;19.55;;;;;;;;;;5034241;28;20081;-60
2022/03/03 03:53:41;;;;;;;36.75;20.27;;;;;;;;;;5035142;28;20064;-59
2022/03/03 03:56:08;;;;;;;37.90;20.60;;;;;;;;;;5034785;28;20032;-61
2022/03/03 03:58:34;;;;;;;40.83;20.60;;;;;;;;;;5034359;28;20030;-58
2022/03/03 04:01:00;;;;;;;36.53;20.25;;;;;;;;;;5035213;28;20029;-61
2022/03/03 04:03:26;;;;;;;43.45;21.23;;;;;;;;;;5034591;28;20096;-60
2022/03/03 04:05:52;;;;;;;38.92;21.95;;;;;;;;;;5034016;28;20125;-60
2022/03/03 04:08:18;;;;;;;44.90;22.30;;;;;;;;;;5034213;28;20026;-60
2022/03/03 04:10:45;;;;;;;38.28;20.48;;;;;;;;;;5033344;28;20076;-60
2022/03/03 04:13:11;;;;;;;36.60;21.45;;;;;;;;;;5034415;28;20025;-60
2022/03/03 04:15:38;;;;;;;39.22;20.13;;;;;;;;;;5034072;28;20060;-61
2022/03/03 04:18:04;;;;;;;46.38;21.15;;;;;;;;;;5034528;28;20032;-60
2022/03/03 04:20:30;;;;;;;41.78;21.83;;;;;;;;;;5033975;28;20022;-60
2022/03/03 04:22:56;;;;;;;40.22;22.00;;;;;;;;;;5034240;28;20028;-61
2022/03/03 04:25:22;;;;;;;38.70;21.40;;;;;;;;;;5034052;28;20120;-60
2022/03/03 04:27:48;;;;;;;37.88;20.73;;;;;;;;;;5034127;28;20409;-60
2022/03/03 04:30:15;;;;;;;37.67;20.05;;;;;;;;;;5034303;28;20077;-61
2022/03/03 04:32:41;;;;;;;39.40;21.45;;;;;;;;;;5033538;28;20045;-60
2022/03/03 04:35:08;;;;;;;46.55;21.85;;;;;;;;;;5033804;28;20418;-60
2022/03/03 04:37:34;;;;;;;44.20;23.65;;;;;;;;;;5033983;28;20025;-60
2022/03/03 04:40:01;;;;;;;40.63;23.05;;;;;;;;;;5033729;28;20029;-60
2022/03/03 04:42:27;;;;;;;46.33;23.63;;;;;;;;;;5033285;28;20013;-60
2022/03/03 04:44:53;;;;;;;42.85;21.70;;;;;;;;;;5033766;28;20120;-61
2022/03/03 04:47:20;;;;;;;43.88;23.00;;;;;;;;;;5033546;28;20025;-59
2022/03/03 04:49:46;;;;;;;43.45;21.92;;;;;;;;;;5033890;28;20025;-60
2022/03/03 04:52:12;;;;;;;49.00;25.13;;;;;;;;;;5033528;28;20027;-61
2022/03/03 04:54:38;;;;;;;45.15;22.20;;;;;;;;;;5033502;28;20026;-60
2022/03/03 04:57:04;;;;;;;37.70;20.45;;;;;;;;;;5033442;28;20463;-61
2022/03/03 04:59:31;;;;;;;42.80;21.52;;;;;;;;;;5032795;28;20026;-58
2022/03/03 05:01:57;;;;;;;41.95;22.63;;;;;;;;;;5033374;28;20021;-61
2022/03/03 05:04:23;;;;;;;43.28;21.83;;;;;;;;;;5033330;28;20364;-61
2022/03/03 05:06:49;;;;;;;40.30;21.65;;;;;;;;;;5033035;28;20378;-61
2022/03/03 05:09:16;;;;;;;38.05;21.48;;;;;;;;;;5033503;28;20029;-59
2022/03/03 05:11:42;;;;;;;39.72;22.02;;;;;;;;;;5033535;28;20017;-59
2022/03/03 05:14:09;;;;;;;40.72;21.95;;;;;;;;;;5032988;28;20056;-59
2022/03/03 05:16:35;;;;;;;39.30;21.40;;;;;;;;;;5033580;28;20021;-60
2022/03/03 05:19:01;;;;;;;40.33;20.40;;;;;;;;;;5033791;28;20034;-58
2022/03/03 05:21:27;;;;;;;38.38;20.65;;;;;;;;;;5032751;28;20029;-60
2022/03/03 05:23:54;;;;;;;38.88;21.48;;;;;;;;;;5031756;28;20054;-61
2022/03/03 05:26:20;;;;;;;40.78;21.08;;;;;;;;;;5033504;28;20017;-61
2022/03/03 05:28:46;;;;;;;40.53;21.75;;;;;;;;;;5032670;28;20036;-61
2022/03/03 05:31:12;;;;;;;37.25;21.50;;;;;;;;;;5033467;28;20030;-59
2022/03/03 05:33:38;;;;;;;40.58;22.05;;;;;;;;;;5033160;28;20026;-62
2022/03/03 05:36:08;;;;;;;43.70;23.40;;;;;;;;;;5033210;28;20017;-61
2022/03/03 05:38:35;;;;;;;41.85;23.25;;;;;;;;;;5033435;28;20014;-61
2022/03/03 05:41:02;;;;;;;85.00;39.40;;;;;;;;;;5032976;28;20033;-60
2022/03/03 05:43:28;;;;;;;46.28;27.75;;;;;;;;;;5032828;28;20458;-60
2022/03/03 05:45:55;;;;;;;46.95;24.73;;;;;;;;;;5033586;28;20030;-60
2022/03/03 05:48:22;;;;;;;106.28;45.70;;;;;;;;;;5033007;28;20030;-61
2022/03/03 05:50:49;;;;;;;88.65;40.40;;;;;;;;;;5032705;28;20558;-59
2022/03/03 05:53:16;;;;;;;51.80;24.92;;;;;;;;;;5033458;28;20029;-59
2022/03/03 05:55:43;;;;;;;55.88;28.45;;;;;;;;;;5032648;28;20029;-61
2022/03/03 05:58:12;;;;;;;58.83;32.03;;;;;;;;;;5033114;28;20053;-59
2022/03/03 06:00:38;;;;;;;78.13;43.13;;;;;;;;;;5033147;28;20487;-61
2022/03/03 06:03:05;;;;;;;53.30;31.00;;;;;;;;;;5031850;28;20014;-63
2022/03/03 06:05:32;;;;;;;40.17;22.92;;;;;;;;;;5031504;28;20018;-61
2022/03/03 06:08:10;;;;;;;48.88;26.80;;;;;;;;;;5031647;28;20034;-59
2022/03/03 06:10:41;;;;;;;50.17;26.08;;;;;;;;;;5034654;28;20187;-58
2022/03/03 06:13:08;;;;;;;104.18;46.20;;;;;;;;;;5036423;28;20021;-61
2022/03/03 06:15:34;;;;;;;59.30;29.05;;;;;;;;;;5036669;28;20013;-61
2022/03/03 06:18:00;;;;;;;51.97;29.13;;;;;;;;;;5036353;28;20040;-61
2022/03/03 06:20:27;;;;;;;88.72;41.50;;;;;;;;;;5036598;28;20041;-58
2022/03/03 06:22:54;;;;;;;327.77;135.32;;;;;;;;;;5035705;28;20096;-62
2022/03/03 06:25:20;;;;;;;65.70;34.72;;;;;;;;;;5036110;28;20054;-60
2022/03/03 06:27:46;;;;;;;59.20;30.77;;;;;;;;;;5035867;28;20026;-60
2022/03/03 06:30:12;;;;;;;52.45;27.20;;;;;;;;;;5036016;28;20025;-59
2022/03/03 06:32:38;;;;;;;62.85;32.42;;;;;;;;;;5036050;28;20035;-60
2022/03/03 06:35:05;;;;;;;67.32;35.55;;;;;;;;;;5037112;28;20052;-60
2022/03/03 06:37:31;;;;;;;72.25;34.65;;;;;;;;;;5036052;28;20025;-57
2022/03/03 06:39:58;;;;;;;71.00;34.33;;;;;;;;;;5035625;28;20112;-60
2022/03/03 06:42:24;;;;;;;57.88;31.95;;;;;;;;;;5035941;28;20029;-59
2022/03/03 06:44:50;;;;;;;53.30;28.65;;;;;;;;;;5035490;28;20120;-57
2022/03/03 06:47:16;;;;;;;56.25;28.98;;;;;;;;;;5036079;28;20029;-56
2022/03/03 06:49:43;;;;;;;50.00;26.48;;;;;;;;;;5035771;28;20116;-60
2022/03/03 06:52:13;;;;;;;46.58;26.40;;;;;;;;;;5035646;28;20022;-60
2022/03/03 06:54:39;;;;;;;49.22;25.30;;;;;;;;;;5035404;28;20080;-61
2022/03/03 06:57:05;;;;;;;37.85;21.25;;;;;;;;;;5033994;28;20420;-61
2022/03/03 06:59:35;;;;;;;44.88;22.80;;;;;;;;;;5035225;28;20029;-60
2022/03/03 07:02:02;;;;;;;37.03;20.20;;;;;;;;;;5034734;28;20100;-60
2022/03/03 07:04:29;;;;;;;38.60;21.67;;;;;;;;;;5033470;28;20025;-60
2022/03/03 07:06:56;;;;;;;38.70;20.48;;;;;;;;;;5033911;28;20029;-61
2022/03/03 07:09:22;;;;;;;37.97;19.73;;;;;;;;;;5034532;28;20075;-61
2022/03/03 07:11:51;;;;;;;42.67;23.40;;;;;;;;;;5034966;28;20104;-59
2022/03/03 07:14:18;;;;;;;38.22;20.30;;;;;;;;;;5034855;28;20025;-60
2022/03/03 07:16:45;;;;;;;35.00;19.60;;;;;;;;;;5035226;28;20017;-60
2022/03/03 07:19:27;;;;;;;43.58;24.17;;;;;;;;;;5035789;28;20037;-61
2022/03/03 07:21:53;;;;;;;45.05;22.73;;;;;;;;;;5034256;28;20026;-60
2022/03/03 07:24:25;;;;;;;49.25;21.58;;;;;;;;;;5035067;28;20064;-60
2022/03/03 07:26:55;;;;;;;41.05;20.35;;;;;;;;;;5035232;28;20335;-60
2022/03/03 07:29:23;;;;;;;33.90;20.65;;;;;;;;;;5035032;28;20029;-61
2022/03/03 07:31:58;;;;;;;35.78;20.17;;;;;;;;;;5035260;28;20509;-60
2022/03/03 07:34:42;;;;;;;40.40;22.67;;;;;;;;;;5034891;28;20036;-59
2022/03/03 07:37:14;;;;;;;40.50;21.80;;;;;;;;;;5035514;28;20083;-61
2022/03/03 07:39:42;;;;;;;41.35;23.20;;;;;;;;;;5034900;28;20025;-60
2022/03/03 07:42:15;;;;;;;47.45;25.77;;;;;;;;;;5034878;28;20049;-59
2022/03/03 07:44:41;;;;;;;49.40;24.02;;;;;;;;;;5034746;28;20032;-59
2022/03/03 07:47:08;;;;;;;34.55;17.58;;;;;;;;;;5034986;28;20440;-60
2022/03/03 07:49:35;;;;;;;32.05;17.77;;;;;;;;;;5034293;28;20055;-60
2022/03/03 07:52:05;;;;;;;30.30;19.17;;;;;;;;;;5034910;28;20032;-62
2022/03/03 07:54:32;;;;;;;28.92;17.10;;;;;;;;;;5033390;28;20033;-60
2022/03/03 07:56:59;;;;;;;34.13;18.25;;;;;;;;;;5034528;28;20057;-61
2022/03/03 07:59:33;;;;;;;36.03;17.75;;;;;;;;;;5034464;28;20026;-61
2022/03/03 08:02:00;;;;;;;26.42;14.02;;;;;;;;;;5034398;28;20032;-60
2022/03/03 08:04:31;;;;;;;29.30;14.65;;;;;;;;;;5034927;28;20084;-60
2022/03/03 08:07:03;;;;;;;24.13;12.80;;;;;;;;;;5034703;28;20057;-61
2022/03/03 08:09:31;;;;;;;26.17;12.52;;;;;;;;;;5034240;28;20029;-57
2022/03/03 08:11:59;;;;;;;25.63;12.10;;;;;;;;;;5035014;28;20036;-63
2022/03/03 08:14:25;;;;;;;22.52;12.70;;;;;;;;;;5034206;28;20031;-60
2022/03/03 08:16:51;;;;;;;22.83;12.25;;;;;;;;;;5033877;28;20017;-58
2022/03/03 08:19:18;;;;;;;22.30;11.50;;;;;;;;;;5034044;28;20030;-58
2022/03/03 08:21:44;;;;;;;26.50;12.50;;;;;;;;;;5034361;28;20025;-60
2022/03/03 08:24:12;;;;;;;24.63;11.65;;;;;;;;;;5033848;28;20049;-60
2022/03/03 08:26:39;;;;;;;25.33;11.18;;;;;;;;;;5033929;28;20021;-60
2022/03/03 08:29:05;;;;;;;20.45;10.68;;;;;;;;;;5034156;28;20025;-63
2022/03/03 08:31:42;;;;;;;20.38;10.50;;;;;;;;;;5033619;28;20107;-60
2022/03/03 08:34:12;;;;;;;20.77;10.70;;;;;;;;;;5032693;28;20026;-61
2022/03/03 08:36:54;;;;;;;20.13;9.70;;;;;;;;;;5034046;28;20033;-59
2022/03/03 08:39:26;;;;;;;23.23;10.60;;;;;;;;;;5034079;28;20029;-62
2022/03/03 08:41:55;;;;;;;20.00;10.40;;;;;;;;;;5034433;28;20026;-61
2022/03/03 08:44:21;;;;;;;23.00;11.30;;;;;;;;;;5033864;28;20025;-58
2022/03/03 08:46:48;;;;;;;16.20;9.40;;;;;;;;;;5034358;28;20026;-59
2022/03/03 08:49:14;;;;;;;20.42;11.18;;;;;;;;;;5033745;28;20489;-61
2022/03/03 08:51:41;;;;;;;45.55;20.33;;;;;;;;;;5033705;28;20033;-56
2022/03/03 08:54:07;;;;;;;24.02;12.02;;;;;;;;;;5033637;28;20021;-62
2022/03/03 08:56:34;;;;;;;29.02;15.60;;;;;;;;;;5034304;28;20028;-59
2022/03/03 08:59:01;;;;;;;21.45;12.40;;;;;;;;;;5033539;28;20370;-61
2022/03/03 09:01:27;;;;;;;17.13;9.68;;;;;;;;;;5033701;28;20025;-60
2022/03/03 09:03:53;;;;;;;19.50;11.10;;;;;;;;;;5033557;28;20029;-59
2022/03/03 09:06:20;;;;;;;20.65;11.85;;;;;;;;;;5033227;28;20052;-61
2022/03/03 09:08:46;;;;;;;19.70;10.15;;;;;;;;;;5033590;28;20107;-59
2022/03/03 09:11:12;;;;;;;21.65;11.10;;;;;;;;;;5033254;28;20065;-60
2022/03/03 09:13:39;;;;;;;21.85;11.70;;;;;;;;;;5033581;28;20056;-61
2022/03/03 09:16:05;;;;;;;16.83;10.88;;;;;;;;;;5033519;28;20018;-61
2022/03/03 09:18:33;;;;;;;17.95;11.20;;;;;;;;;;5033484;28;20033;-60
2022/03/03 09:21:00;;;;;;;20.83;10.93;;;;;;;;;;5032986;28;20025;-61
2022/03/03 09:23:26;;;;;;;16.75;10.45;;;;;;;;;;5033134;28;20037;-60
2022/03/03 09:25:52;;;;;;;22.92;10.88;;;;;;;;;;5033235;28;20021;-60
2022/03/03 09:28:18;;;;;;;20.67;11.90;;;;;;;;;;5033516;28;20017;-57
2022/03/03 09:30:45;;;;;;;25.40;13.35;;;;;;;;;;5032780;28;20061;-60
2022/03/03 09:33:11;;;;;;;26.48;13.07;;;;;;;;;;5032808;28;20018;-62
2022/03/03 09:35:37;;;;;;;22.00;12.35;;;;;;;;;;5033336;28;20048;-61
2022/03/03 09:38:04;;;;;;;23.77;10.75;;;;;;;;;;5032888;28;20100;-60
2022/03/03 09:40:30;;;;;;;19.45;11.38;;;;;;;;;;5033075;28;20413;-61
2022/03/03 09:43:01;;;;;;;17.42;10.52;;;;;;;;;;5033045;28;20037;-61
2022/03/03 09:45:27;;;;;;;18.90;11.77;;;;;;;;;;5034910;28;20130;-61
2022/03/03 09:47:54;;;;;;;17.35;10.75;;;;;;;;;;5037213;28;20029;-60
2022/03/03 09:50:21;;;;;;;17.73;10.50;;;;;;;;;;5036087;28;20414;-60
2022/03/03 09:52:47;;;;;;;26.75;13.90;;;;;;;;;;5035522;28;20060;-59
2022/03/03 09:55:13;;;;;;;20.40;11.52;;;;;;;;;;5034598;28;20021;-61
2022/03/03 09:57:40;;;;;;;19.75;10.52;;;;;;;;;;5037074;28;20029;-60
2022/03/03 10:00:08;;;;;;;21.73;11.77;;;;;;;;;;5036785;28;20076;-60
2022/03/03 10:02:53;;;;;;;19.00;11.40;;;;;;;;;;5036636;28;20021;-61
2022/03/03 10:05:30;;;;;;;18.73;11.68;;;;;;;;;;5037308;28;20033;-61
2022/03/03 10:08:09;;;;;;;22.83;10.93;;;;;;;;;;5034763;28;20547;-61
2022/03/03 10:10:37;;;;;;;17.98;11.07;;;;;;;;;;5036418;28;20068;-60
2022/03/03 10:13:04;;;;;;;23.42;12.38;;;;;;;;;;5036424;28;20074;-61
2022/03/03 10:15:30;;;;;;;23.08;12.73;;;;;;;;;;5036340;28;20025;-63
2022/03/03 10:18:01;;;;;;;21.98;13.00;;;;;;;;;;5036447;28;20041;-61
2022/03/03 10:20:29;;;;;;;26.05;11.57;;;;;;;;;;5037289;28;20025;-61
2022/03/03 10:22:58;;;;;;;20.95;12.07;;;;;;;;;;5036071;28;20024;-61
2022/03/03 10:25:38;;;;;;;26.50;15.40;;;;;;;;;;5036947;28;20049;-63
2022/03/03 10:28:11;;;;;;;27.25;14.18;;;;;;;;;;5036038;28;20100;-57
2022/03/03 10:30:47;;;;;;;29.00;15.32;;;;;;;;;;5036057;28;20167;-60
2022/03/03 10:33:17;;;;;;;22.52;12.00;;;;;;;;;;5036626;28;20482;-62
2022/03/03 10:35:57;;;;;;;21.98;13.32;;;;;;;;;;5035970;28;20041;-60
2022/03/03 10:38:23;;;;;;;16.20;10.82;;;;;;;;;;5036656;28;20131;-60
2022/03/03 10:40:49;;;;;;;21.30;12.70;;;;;;;;;;5036021;28;20030;-61
2022/03/03 10:43:16;;;;;;;22.95;12.27;;;;;;;;;;5035946;28;20028;-61
2022/03/03 10:45:59;;;;;;;35.05;18.55;;;;;;;;;;5036158;28;20018;-61
2022/03/03 10:48:26;;;;;;;24.92;15.13;;;;;;;;;;5035357;28;20516;-62
2022/03/03 10:50:54;;;;;;;22.63;14.18;;;;;;;;;;5035979;28;20034;-61
2022/03/03 10:53:21;;;;;;;15.63;10.35;;;;;;;;;;5035114;28;20492;-60
2022/03/03 10:56:07;;;;;;;27.52;15.10;;;;;;;;;;5035368;28;20108;-60
2022/03/03 10:58:46;;;;;;;18.10;11.00;;;;;;;;;;5035529;28;20022;-60
2022/03/03 11:01:13;;;;;;;15.93;11.60;;;;;;;;;;5035951;28;20031;-61
2022/03/03 11:03:40;;;;;;;22.73;15.55;;;;;;;;;;5035744;28;20075;-60
2022/03/03 11:06:10;;;;;;;19.77;12.85;;;;;;;;;;5035569;28;20139;-61
2022/03/03 11:08:37;;;;;;;20.33;13.23;;;;;;;;;;5035339;28;20450;-61
2022/03/03 11:11:03;;;;;;;16.98;11.82;;;;;;;;;;5035154;28;20034;-61
2022/03/03 11:13:30;;;;;;;15.75;10.93;;;;;;;;;;5035609;28;20104;-60
2022/03/03 11:15:56;;;;;;;17.08;11.38;;;;;;;;;;5035088;28;20018;-61
2022/03/03 11:18:23;;;;;;;17.70;11.45;;;;;;;;;;5035362;28;20021;-61
2022/03/03 11:20:49;;;;;;;15.63;10.77;;;;;;;;;;5034757;28;20099;-61
2022/03/03 11:23:15;;;;;;;14.85;10.35;;;;;;;;;;5034816;28;20022;-60
2022/03/03 11:25:42;;;;;;;18.80;11.68;;;;;;;;;;5034949;28;20024;-61
2022/03/03 11:28:15;;;;;;;19.50;12.32;;;;;;;;;;5035043;28;20032;-62
2022/03/03 11:30:45;;;;;;;13.65;10.32;;;;;;;;;;5035604;28;20028;-61
2022/03/03 11:33:18;;;;;;;16.03;9.83;;;;;;;;;;5034923;28;20569;-63
2022/03/03 11:35:48;;;;;;;13.95;10.25;;;;;;;;;;5034386;28;20263;-61
2022/03/03 11:38:15;;;;;;;12.50;9.57;;;;;;;;;;5034670;28;20013;-61
2022/03/03 11:40:51;;;;;;;17.23;10.90;;;;;;;;;;5034995;28;20108;-60
2022/03/03 11:43:17;;;;;;;13.25;9.30;;;;;;;;;;5035386;28;20025;-62
2022/03/03 11:45:51;;;;;;;14.35;10.40;;;;;;;;;;5034487;28;20128;-60
2022/03/03 11:48:20;;;;;;;19.67;12.32;;;;;;;;;;5035182;28;20028;-60
2022/03/03 11:50:46;;;;;;;17.25;10.35;;;;;;;;;;5035140;28;20030;-59
2022/03/03 11:53:12;;;;;;;13.13;8.73;;;;;;;;;;5034038;28;20168;-61
2022/03/03 11:55:38;;;;;;;12.18;9.07;;;;;;;;;;5034453;28;20052;-61
2022/03/03 11:58:24;;;;;;;14.13;9.13;;;;;;;;;;5034800;28;20018;-61
2022/03/03 12:01:03;;;;;;;15.07;10.35;;;;;;;;;;5034284;28;20033;-61
2022/03/03 12:03:30;;;;;;;14.95;9.68;;;;;;;;;;5035009;28;20386;-61
2022/03/03 12:06:05;;;;;;;13.68;9.00;;;;;;;;;;5034583;28;20087;-61
2022/03/03 12:08:35;;;;;;;13.38;9.40;;;;;;;;;;5033608;28;20033;-64
2022/03/03 12:11:05;;;;;;;12.00;9.63;;;;;;;;;;5034672;28;20025;-61
2022/03/03 12:13:32;;;;;;;16.25;10.02;;;;;;;;;;5034120;28;20059;-62
2022/03/03 12:16:20;;;;;;;14.98;9.02;;;;;;;;;;5034203;28;20050;-60
2022/03/03 12:18:48;;;;;;;11.20;8.80;;;;;;;;;;5034375;28;20017;-60
2022/03/03 12:21:24;;;;;;;12.77;8.50;;;;;;;;;;5033999;28;20025;-60
2022/03/03 12:23:51;;;;;;;16.65;9.73;;;;;;;;;;5034441;28;20486;-61
2022/03/03 12:26:17;;;;;;;12.05;9.30;;;;;;;;;;5033930;28;20079;-61
2022/03/03 12:28:46;;;;;;;16.33;8.88;;;;;;;;;;5033931;28;20108;-61
2022/03/03 12:31:29;;;;;;;13.25;9.48;;;;;;;;;;5033976;28;20025;-61
2022/03/03 12:34:03;;;;;;;13.85;9.82;;;;;;;;;;5034172;28;20038;-62
2022/03/03 12:36:37;;;;;;;17.48;11.32;;;;;;;;;;5033961;28;20459;-61
2022/03/03 12:39:07;;;;;;;11.65;9.45;;;;;;;;;;5034400;28;20112;-60
2022/03/03 12:41:34;;;;;;;17.00;9.75;;;;;;;;;;5034190;28;20432;-60
2022/03/03 12:44:09;;;;;;;13.32;9.35;;;;;;;;;;5034047;28;20109;-62
2022/03/03 12:46:35;;;;;;;13.02;8.63;;;;;;;;;;5033804;28;20528;-61
2022/03/03 12:49:05;;;;;;;18.80;12.63;;;;;;;;;;5033291;28;20444;-59
2022/03/03 12:51:32;;;;;;;16.05;10.23;;;;;;;;;;5033510;28;20494;-60
2022/03/03 12:54:02;;;;;;;14.18;8.50;;;;;;;;;;5034074;28;20545;-61
2022/03/03 12:56:30;;;;;;;14.07;8.40;;;;;;;;;;5033819;28;20072;-62
2022/03/03 12:58:58;;;;;;;12.65;9.27;;;;;;;;;;5034038;28;20041;-61
2022/03/03 13:01:25;;;;;;;12.77;9.13;;;;;;;;;;5033527;28;20018;-60
2022/03/03 13:03:52;;;;;;;147.85;102.10;;;;;;;;;;5033151;28;20079;-62
2022/03/03 13:06:19;;;;;;;21.00;12.50;;;;;;;;;;5033498;28;20470;-61
2022/03/03 13:08:45;;;;;;;14.50;9.07;;;;;;;;;;5033657;28;20079;-61
2022/03/03 13:11:17;;;;;;;14.50;9.00;;;;;;;;;;5033310;28;20032;-60
2022/03/03 13:13:47;;;;;;;13.88;9.40;;;;;;;;;;5033641;28;20367;-60
2022/03/03 13:16:14;;;;;;;14.38;10.02;;;;;;;;;;5033552;28;20466;-60
2022/03/03 13:18:42;;;;;;;12.45;8.05;;;;;;;;;;5033037;28;20034;-61
2022/03/03 13:21:09;;;;;;;47.05;35.95;;;;;;;;;;5035134;28;20052;-63
2022/03/03 13:23:39;;;;;;;20.17;12.93;;;;;;;;;;5037324;28;20413;-61
2022/03/03 13:26:05;;;;;;;16.00;9.60;;;;;;;;;;5037763;28;20028;-62
2022/03/03 13:28:31;;;;;;;12.20;9.05;;;;;;;;;;5038212;28;20036;-62
2022/03/03 13:31:02;;;;;;;17.58;8.55;;;;;;;;;;5037514;28;20398;-61
2022/03/03 13:33:45;;;;;;;11.75;7.75;;;;;;;;;;5037852;28;20108;-60
2022/03/03 13:36:32;;;;;;;9.93;7.43;;;;;;;;;;5037710;28;20040;-60
2022/03/03 13:38:59;;;;;;;9.60;7.45;;;;;;;;;;5027012;28;20031;-62
2022/03/03 13:41:25;;;;;;;12.65;7.97;;;;;;;;;;5037711;28;20092;-61
2022/03/03 13:44:08;;;;;;;9.82;7.60;;;;;;;;;;5037021;28;20018;-61
2022/03/03 13:46:35;;;;;;;14.40;11.40;;;;;;;;;;5037109;28;20022;-62
2022/03/03 13:49:01;;;;;;;14.75;9.38;;;;;;;;;;5037219;28;20021;-60
2022/03/03 13:51:27;;;;;;;13.65;8.65;;;;;;;;;;5037345;28;20029;-61
2022/03/03 13:54:01;;;;;;;11.93;8.60;;;;;;;;;;5036674;28;20101;-60
2022/03/03 13:56:34;;;;;;;11.93;9.23;;;;;;;;;;5036922;28;20084;-62
2022/03/03 13:59:04;;;;;;;14.82;8.63;;;;;;;;;;5036483;28;20013;-60
2022/03/03 14:01:33;;;;;;;11.45;8.05;;;;;;;;;;5037150;28;20055;-62
2022/03/03 14:04:12;;;;;;;14.02;10.27;;;;;;;;;;5036999;28;20026;-61
2022/03/03 14:06:39;;;;;;;12.02;8.43;;;;;;;;;;5035356;28;20072;-61
2022/03/03 14:09:05;;;;;;;10.13;7.10;;;;;;;;;;5036825;28;20091;-62
2022/03/03 14:11:31;;;;;;;10.30;7.47;;;;;;;;;;5036791;28;20029;-61
2022/03/03 14:13:59;;;;;;;14.85;8.40;;;;;;;;;;5036104;28;20036;-63
2022/03/03 14:16:29;;;;;;;10.48;7.18;;;;;;;;;;5036694;28;20344;-62
2022/03/03 14:18:56;;;;;;;11.63;7.38;;;;;;;;;;5036391;28;20513;-61
2022/03/03 14:21:23;;;;;;;11.80;8.05;;;;;;;;;;5036324;28;20068;-61
2022/03/03 14:24:02;;;;;;;9.48;7.60;;;;;;;;;;5036487;28;20491;-66
2022/03/03 14:26:31;;;;;;;10.70;7.72;;;;;;;;;;5036051;28;20025;-62